Time;durP1;ratioP1;P1;durP2;ratioP2;P2;SDS_P1;SDS_P2;PMS_P1;PMS_P2;Temp;Humidity;BMP_temperature;BMP_pressure;BME280_temperature;BME280_humidity;BME280_pressure;Samples;Min_cycle;Max_cycle;Signal;HPM_P1;HPM_P2
2023/03/21 00:01:40;;;;;;;2.72;2.53;;;;;;;;;;5054280;28;20469;-78
2023/03/21 00:04:06;;;;;;;2.75;2.00;;;;;;;;;;5053890;28;20413;-78
2023/03/21 00:06:32;;;;;;;2.40;1.88;;;;;;;;;;5054055;28;20408;-78
2023/03/21 00:08:58;;;;;;;2.90;1.85;;;;;;;;;;5054294;28;20373;-78
2023/03/21 00:11:24;;;;;;;2.00;1.70;;;;;;;;;;5045128;28;20739;-78
2023/03/21 00:13:52;;;;;;;1.70;1.60;;;;;;;;;;5053885;28;20435;-78
2023/03/21 00:16:18;;;;;;;2.22;1.90;;;;;;;;;;5052716;28;20389;-78
2023/03/21 00:18:46;;;;;;;2.63;2.33;;;;;;;;;;5053863;28;20381;-77
2023/03/21 00:21:14;;;;;;;2.60;2.13;;;;;;;;;;5043446;28;20388;-78
2023/03/21 00:23:40;;;;;;;2.63;1.98;;;;;;;;;;5049967;28;20407;-78
2023/03/21 00:26:08;;;;;;;2.50;2.17;;;;;;;;;;5038019;28;20395;-77
2023/03/21 00:28:35;;;;;;;2.80;2.25;;;;;;;;;;5050448;28;20875;-78
2023/03/21 00:31:01;;;;;;;2.63;1.73;;;;;;;;;;5041634;28;20491;-78
2023/03/21 00:33:27;;;;;;;3.03;2.00;;;;;;;;;;5036476;28;20948;-78
2023/03/21 00:35:53;;;;;;;2.87;1.93;;;;;;;;;;5052489;28;20409;-78
2023/03/21 00:38:20;;;;;;;2.47;2.00;;;;;;;;;;5053428;28;20381;-77
2023/03/21 00:40:46;;;;;;;2.28;2.08;;;;;;;;;;5053350;28;20389;-78
2023/03/21 00:43:16;;;;;;;2.40;2.20;;;;;;;;;;5044577;28;20418;-78
2023/03/21 00:45:42;;;;;;;2.75;2.00;;;;;;;;;;5039439;28;20393;-78
2023/03/21 00:48:08;;;;;;;3.03;2.30;;;;;;;;;;5053326;28;20394;-78
2023/03/21 00:50:35;;;;;;;3.00;2.30;;;;;;;;;;5053162;28;20396;-78
2023/03/21 00:53:01;;;;;;;2.30;2.10;;;;;;;;;;5053213;28;20389;-78
2023/03/21 00:55:27;;;;;;;2.05;1.90;;;;;;;;;;5053157;28;20400;-78
2023/03/21 00:57:53;;;;;;;2.70;2.15;;;;;;;;;;5052786;28;20401;-78
2023/03/21 01:00:19;;;;;;;2.60;2.30;;;;;;;;;;5053058;28;20719;-78
2023/03/21 01:02:55;;;;;;;2.60;2.40;;;;;;;;;;5052817;28;20890;-78
2023/03/21 01:06:00;;;;;;;2.42;2.22;;;;;;;;;;5052985;28;20386;-78
2023/03/21 01:08:07;;;;;;;2.90;2.20;;;;;;;;;;5052631;28;20440;-78
2023/03/21 01:10:33;;;;;;;3.43;2.40;;;;;;;;;;5035590;28;20829;-78
2023/03/21 01:12:59;;;;;;;2.45;1.95;;;;;;;;;;5042011;28;20381;-78
2023/03/21 01:15:25;;;;;;;3.95;2.20;;;;;;;;;;5048380;28;20396;-78
2023/03/21 01:17:51;;;;;;;2.50;2.30;;;;;;;;;;5037009;28;20391;-78
2023/03/21 01:20:17;;;;;;;2.50;1.90;;;;;;;;;;5032621;28;20419;-78
2023/03/21 01:22:44;;;;;;;2.80;2.10;;;;;;;;;;5042045;28;20492;-78
2023/03/21 01:25:10;;;;;;;2.30;2.10;;;;;;;;;;5033327;28;20728;-78
2023/03/21 01:27:36;;;;;;;2.80;2.20;;;;;;;;;;5022928;28;20905;-78
2023/03/21 01:30:02;;;;;;;2.47;2.28;;;;;;;;;;5032299;28;20375;-78
2023/03/21 01:32:28;;;;;;;2.78;2.45;;;;;;;;;;5032698;28;20765;-78
2023/03/21 01:34:54;;;;;;;2.55;2.30;;;;;;;;;;5029934;28;20379;-78
2023/03/21 01:37:20;;;;;;;3.45;2.25;;;;;;;;;;5030045;28;20426;-78
2023/03/21 01:39:46;;;;;;;2.72;2.25;;;;;;;;;;5032170;28;20383;-78
2023/03/21 01:42:15;;;;;;;2.60;2.40;;;;;;;;;;5032250;28;20387;-78
2023/03/21 01:45:02;;;;;;;3.28;2.33;;;;;;;;;;5031956;28;20383;-77
2023/03/21 01:47:28;;;;;;;2.70;2.20;;;;;;;;;;5032147;28;20466;-78
2023/03/21 01:49:56;;;;;;;2.58;2.15;;;;;;;;;;5032066;28;20386;-78
2023/03/21 01:52:23;;;;;;;2.60;2.38;;;;;;;;;;5032059;28;20375;-78
2023/03/21 01:54:51;;;;;;;3.22;2.28;;;;;;;;;;5031953;28;20442;-78
2023/03/21 01:57:20;;;;;;;2.42;2.22;;;;;;;;;;5058361;28;20403;-78
2023/03/21 01:59:49;;;;;;;2.63;2.20;;;;;;;;;;5071393;28;20415;-78
2023/03/21 02:02:19;;;;;;;2.70;2.50;;;;;;;;;;5051840;28;20419;-77
2023/03/21 02:04:49;;;;;;;2.72;2.25;;;;;;;;;;5051929;28;20389;-78
2023/03/21 02:07:17;;;;;;;2.58;2.38;;;;;;;;;;5051751;28;20389;-77
2023/03/21 02:09:48;;;;;;;3.67;2.63;;;;;;;;;;5052016;28;20743;-77
2023/03/21 02:12:15;;;;;;;2.70;2.42;;;;;;;;;;5070600;28;20383;-78
2023/03/21 02:14:42;;;;;;;2.72;2.30;;;;;;;;;;5072647;28;20383;-77
2023/03/21 02:17:12;;;;;;;2.30;2.10;;;;;;;;;;5072904;28;20441;-77
2023/03/21 02:19:57;;;;;;;2.63;2.25;;;;;;;;;;5045289;28;20389;-77
2023/03/21 02:22:42;;;;;;;2.67;2.00;;;;;;;;;;5055219;28;20428;-78
2023/03/21 02:25:20;;;;;;;2.05;1.85;;;;;;;;;;5060083;28;20853;-77
2023/03/21 02:27:52;;;;;;;2.70;2.10;;;;;;;;;;5038448;28;20460;-77
2023/03/21 02:30:34;;;;;;;2.25;2.05;;;;;;;;;;5065312;28;20378;-77
2023/03/21 02:33:10;;;;;;;2.50;2.30;;;;;;;;;;5047310;28;20372;-77
2023/03/21 02:35:42;;;;;;;2.40;2.20;;;;;;;;;;5052403;28;20795;-78
2023/03/21 02:38:10;;;;;;;2.95;2.50;;;;;;;;;;5051174;28;20396;-77
2023/03/21 02:40:42;;;;;;;2.10;1.90;;;;;;;;;;5033848;28;20373;-77
2023/03/21 02:43:14;;;;;;;2.25;1.88;;;;;;;;;;5042262;28;20410;-77
2023/03/21 02:45:51;;;;;;;2.17;1.88;;;;;;;;;;5071341;28;20861;-78
2023/03/21 02:48:23;;;;;;;2.20;1.88;;;;;;;;;;5071670;28;20753;-77
2023/03/21 02:50:50;;;;;;;2.72;2.00;;;;;;;;;;5071561;28;20406;-77
2023/03/21 02:53:19;;;;;;;2.40;2.20;;;;;;;;;;5071422;28;20737;-78
2023/03/21 02:55:45;;;;;;;3.50;2.20;;;;;;;;;;5059063;28;20457;-77
2023/03/21 02:58:15;;;;;;;19.95;12.90;;;;;;;;;;5051186;28;20480;-78
2023/03/21 03:00:43;;;;;;;3.03;2.67;;;;;;;;;;5051162;28;20940;-78
2023/03/21 03:03:09;;;;;;;2.58;2.30;;;;;;;;;;5050964;28;20413;-78
2023/03/21 03:05:37;;;;;;;3.03;2.75;;;;;;;;;;5051060;28;20373;-77
2023/03/21 03:08:27;;;;;;;3.65;2.83;;;;;;;;;;5050775;28;20405;-77
2023/03/21 03:10:56;;;;;;;3.45;3.10;;;;;;;;;;5051262;28;20381;-78
2023/03/21 03:13:25;;;;;;;2.88;2.50;;;;;;;;;;5050964;28;20381;-77
2023/03/21 03:16:17;;;;;;;2.20;2.00;;;;;;;;;;5050883;28;20380;-77
2023/03/21 03:18:50;;;;;;;2.90;2.30;;;;;;;;;;5050957;28;20381;-77
2023/03/21 03:21:36;;;;;;;2.53;2.03;;;;;;;;;;5051081;28;20373;-77
2023/03/21 03:24:22;;;;;;;2.55;1.90;;;;;;;;;;5045090;28;20430;-78
2023/03/21 03:27:09;;;;;;;1.92;1.75;;;;;;;;;;5026290;28;20887;-78
2023/03/21 03:29:38;;;;;;;14.77;7.88;;;;;;;;;;5040263;28;20440;-78
2023/03/21 03:32:16;;;;;;;2.30;2.10;;;;;;;;;;5049204;28;20389;-78
2023/03/21 03:34:48;;;;;;;9.07;6.45;;;;;;;;;;5050602;28;20870;-77
2023/03/21 03:37:16;;;;;;;7.37;5.23;;;;;;;;;;5050970;28;20453;-78
2023/03/21 03:40:05;;;;;;;5.32;3.53;;;;;;;;;;5032893;28;20966;-78
2023/03/21 03:42:35;;;;;;;3.45;2.50;;;;;;;;;;5041689;28;20465;-77
2023/03/21 03:45:02;;;;;;;2.70;2.00;;;;;;;;;;5043879;28;20382;-78
2023/03/21 03:47:36;;;;;;;1.88;1.50;;;;;;;;;;5048731;28;20448;-78
2023/03/21 03:50:11;;;;;;;1.80;1.50;;;;;;;;;;5052938;28;20488;-78
2023/03/21 03:52:50;;;;;;;2.60;1.70;;;;;;;;;;5041992;28;20887;-78
2023/03/21 03:55:18;;;;;;;1.98;1.40;;;;;;;;;;5054367;28;20392;-78
2023/03/21 03:57:44;;;;;;;1.50;1.40;;;;;;;;;;5070978;28;20411;-78
2023/03/21 04:00:12;;;;;;;1.98;1.88;;;;;;;;;;5074402;28;20392;-77
2023/03/21 04:02:38;;;;;;;2.22;2.05;;;;;;;;;;5074076;28;20437;-78
2023/03/21 04:05:04;;;;;;;2.13;1.80;;;;;;;;;;5059901;28;20429;-77
2023/03/21 04:07:31;;;;;;;1.70;1.60;;;;;;;;;;5074039;28;20460;-78
2023/03/21 04:09:57;;;;;;;2.10;1.70;;;;;;;;;;5073948;28;20387;-78
2023/03/21 04:12:23;;;;;;;2.05;1.70;;;;;;;;;;5055994;28;20873;-77
2023/03/21 04:14:50;;;;;;;1.52;1.40;;;;;;;;;;5067476;28;20406;-78
2023/03/21 04:17:16;;;;;;;1.63;1.40;;;;;;;;;;5032038;28;21031;-78
2023/03/21 04:19:42;;;;;;;1.73;1.60;;;;;;;;;;5045994;28;20460;-77
2023/03/21 04:22:08;;;;;;;1.90;1.45;;;;;;;;;;5053572;28;20728;-77
2023/03/21 04:24:36;;;;;;;1.48;1.38;;;;;;;;;;5050422;28;20405;-77
2023/03/21 04:27:04;;;;;;;1.60;1.50;;;;;;;;;;5047286;28;20374;-78
2023/03/21 04:29:30;;;;;;;2.40;1.38;;;;;;;;;;5044128;28;20386;-78
2023/03/21 04:31:56;;;;;;;2.05;1.67;;;;;;;;;;5047320;28;20866;-78
2023/03/21 04:34:22;;;;;;;1.55;1.40;;;;;;;;;;5049267;28;20470;-78
2023/03/21 04:36:49;;;;;;;1.60;1.50;;;;;;;;;;5051592;28;20797;-79
2023/03/21 04:39:16;;;;;;;1.63;1.50;;;;;;;;;;5044922;28;20436;-79
2023/03/21 04:41:43;;;;;;;2.80;1.52;;;;;;;;;;5035272;28;20970;-78
2023/03/21 04:44:10;;;;;;;1.73;1.60;;;;;;;;;;5047885;28;20887;-78
2023/03/21 04:46:36;;;;;;;1.90;1.60;;;;;;;;;;5051287;28;20456;-78
2023/03/21 04:49:03;;;;;;;2.10;1.80;;;;;;;;;;5045369;28;20396;-78
2023/03/21 04:51:29;;;;;;;2.38;1.50;;;;;;;;;;5050380;28;20377;-78
2023/03/21 04:53:56;;;;;;;2.33;1.70;;;;;;;;;;5045897;28;20432;-78
2023/03/21 04:56:29;;;;;;;2.10;1.40;;;;;;;;;;5045417;28;20409;-78
2023/03/21 04:58:55;;;;;;;2.10;1.30;;;;;;;;;;5053169;28;20397;-78
2023/03/21 05:01:21;;;;;;;1.75;1.50;;;;;;;;;;5051822;28;20409;-78
2023/03/21 05:03:47;;;;;;;1.60;1.50;;;;;;;;;;5052120;28;21115;-78
2023/03/21 05:06:13;;;;;;;1.83;1.40;;;;;;;;;;5052923;28;20428;-78
2023/03/21 05:08:40;;;;;;;2.00;1.70;;;;;;;;;;5052985;28;20385;-78
2023/03/21 05:11:06;;;;;;;1.83;1.50;;;;;;;;;;5053560;28;20374;-78
2023/03/21 05:13:32;;;;;;;2.47;1.67;;;;;;;;;;5053421;28;20459;-78
2023/03/21 05:15:58;;;;;;;1.60;1.50;;;;;;;;;;5034824;28;20465;-78
2023/03/21 05:18:24;;;;;;;2.50;1.60;;;;;;;;;;5046878;28;21010;-78
2023/03/21 05:20:54;;;;;;;1.50;1.40;;;;;;;;;;5041568;28;20508;-78
2023/03/21 05:23:21;;;;;;;1.70;1.52;;;;;;;;;;5050651;28;20405;-78
2023/03/21 05:25:48;;;;;;;1.48;1.38;;;;;;;;;;5052687;28;20393;-77
2023/03/21 05:28:16;;;;;;;1.52;1.42;;;;;;;;;;5051572;28;20369;-78
2023/03/21 05:30:43;;;;;;;1.95;1.40;;;;;;;;;;5052565;28;20871;-78
2023/03/21 05:33:09;;;;;;;2.25;1.33;;;;;;;;;;5052145;28;20396;-78
2023/03/21 05:35:34;;;;;;;1.40;1.30;;;;;;;;;;5052608;28;20472;-78
2023/03/21 05:38:01;;;;;;;3.08;1.65;;;;;;;;;;5036099;28;20427;-79
2023/03/21 05:40:27;;;;;;;1.67;1.58;;;;;;;;;;5055211;28;20386;-77
2023/03/21 05:42:52;;;;;;;2.05;1.50;;;;;;;;;;5054722;28;20763;-78
2023/03/21 05:45:19;;;;;;;1.60;1.50;;;;;;;;;;5054076;28;20374;-78
2023/03/21 05:47:45;;;;;;;2.20;1.65;;;;;;;;;;5042198;28;20467;-78
2023/03/21 05:50:12;;;;;;;2.90;2.08;;;;;;;;;;5052510;28;20468;-78
2023/03/21 05:52:38;;;;;;;2.10;1.45;;;;;;;;;;5052306;28;20377;-78
2023/03/21 05:55:04;;;;;;;2.67;1.80;;;;;;;;;;5052560;28;20381;-78
2023/03/21 05:57:33;;;;;;;2.23;1.50;;;;;;;;;;5044877;28;20405;-78
2023/03/21 05:59:59;;;;;;;3.28;1.80;;;;;;;;;;5052104;28;20417;-78
2023/03/21 06:02:25;;;;;;;1.70;1.33;;;;;;;;;;5052146;28;20427;-78
2023/03/21 06:04:51;;;;;;;2.55;1.70;;;;;;;;;;5018515;28;20401;-78
2023/03/21 06:07:17;;;;;;;2.50;1.70;;;;;;;;;;5052039;28;20389;-78
2023/03/21 06:09:43;;;;;;;3.00;1.60;;;;;;;;;;5032426;28;20393;-78
2023/03/21 06:12:11;;;;;;;1.88;1.70;;;;;;;;;;5018785;28;20873;-78
2023/03/21 06:14:37;;;;;;;2.65;1.75;;;;;;;;;;5040076;28;20421;-78
2023/03/21 06:17:02;;;;;;;2.20;1.60;;;;;;;;;;5036144;28;20424;-78
2023/03/21 06:19:28;;;;;;;2.20;1.52;;;;;;;;;;5034013;28;20792;-78
2023/03/21 06:21:54;;;;;;;1.70;1.60;;;;;;;;;;5036836;28;20401;-78
2023/03/21 06:24:21;;;;;;;2.08;1.60;;;;;;;;;;5042411;28;20419;-78
2023/03/21 06:26:47;;;;;;;2.50;1.73;;;;;;;;;;5041391;28;20378;-78
2023/03/21 06:29:13;;;;;;;1.92;1.80;;;;;;;;;;5051654;28;20374;-78
2023/03/21 06:31:39;;;;;;;2.08;1.80;;;;;;;;;;5051549;28;20384;-78
2023/03/21 06:34:05;;;;;;;2.22;2.03;;;;;;;;;;5049741;28;20404;-78
2023/03/21 06:36:31;;;;;;;1.90;1.60;;;;;;;;;;5029824;28;20420;-78
2023/03/21 06:38:57;;;;;;;2.17;2.00;;;;;;;;;;5025720;28;20930;-79
2023/03/21 06:41:23;;;;;;;2.13;1.95;;;;;;;;;;5031396;28;20402;-77
2023/03/21 06:43:49;;;;;;;2.40;2.10;;;;;;;;;;5049927;28;20401;-77
2023/03/21 06:46:15;;;;;;;2.70;2.50;;;;;;;;;;5045440;28;20971;-79
2023/03/21 06:48:43;;;;;;;2.30;2.10;;;;;;;;;;5040501;28;20444;-77
2023/03/21 06:51:10;;;;;;;3.58;2.53;;;;;;;;;;5051131;28;20408;-78
2023/03/21 06:53:36;;;;;;;2.80;2.45;;;;;;;;;;5051083;28;20377;-77
2023/03/21 06:56:02;;;;;;;3.63;3.33;;;;;;;;;;5033266;28;20402;-76
2023/03/21 06:58:28;;;;;;;3.72;3.42;;;;;;;;;;5031155;28;20916;-76
2023/03/21 07:00:54;;;;;;;9.90;9.00;;;;;;;;;;5050369;28;20435;-76
2023/03/21 07:03:22;;;;;;;14.35;12.93;;;;;;;;;;5049583;28;20437;-77
2023/03/21 07:05:48;;;;;;;12.35;11.32;;;;;;;;;;5011835;28;20758;-77
2023/03/21 07:08:14;;;;;;;10.38;9.48;;;;;;;;;;5030613;28;20410;-77
2023/03/21 07:10:44;;;;;;;8.82;8.10;;;;;;;;;;5031073;28;20740;-77
2023/03/21 07:13:10;;;;;;;4.13;3.72;;;;;;;;;;5030832;28;20383;-77
2023/03/21 07:15:37;;;;;;;3.65;3.30;;;;;;;;;;5028938;28;20398;-77
2023/03/21 07:18:03;;;;;;;3.58;2.83;;;;;;;;;;5030258;28;20386;-78
2023/03/21 07:20:30;;;;;;;3.45;3.10;;;;;;;;;;5030368;28;20954;-77
2023/03/21 07:22:56;;;;;;;3.90;3.15;;;;;;;;;;5030938;28;20488;-78
2023/03/21 07:25:22;;;;;;;3.78;2.78;;;;;;;;;;5027124;28;20436;-77
2023/03/21 07:27:48;;;;;;;3.08;2.60;;;;;;;;;;5032304;28;20379;-77
2023/03/21 07:30:15;;;;;;;4.17;3.07;;;;;;;;;;5026335;28;20377;-77
2023/03/21 07:32:41;;;;;;;3.65;3.35;;;;;;;;;;5029278;28;20395;-77
2023/03/21 07:35:08;;;;;;;4.20;3.72;;;;;;;;;;5034705;28;20383;-78
2023/03/21 07:37:34;;;;;;;9.10;8.30;;;;;;;;;;5026643;28;20390;-77
2023/03/21 07:40:00;;;;;;;7.68;7.00;;;;;;;;;;5034583;28;20379;-77
2023/03/21 07:42:26;;;;;;;5.03;4.10;;;;;;;;;;5027846;28;20381;-77
2023/03/21 07:44:53;;;;;;;4.18;3.78;;;;;;;;;;5032795;28;20930;-77
2023/03/21 07:47:20;;;;;;;8.70;7.80;;;;;;;;;;5033905;28;20937;-77
2023/03/21 07:49:46;;;;;;;4.75;4.35;;;;;;;;;;5033325;28;20382;-77
2023/03/21 07:52:12;;;;;;;5.40;4.90;;;;;;;;;;5033966;28;20426;-77
2023/03/21 07:54:38;;;;;;;5.10;4.60;;;;;;;;;;5033326;28;20387;-77
2023/03/21 07:57:04;;;;;;;7.60;6.75;;;;;;;;;;5033541;28;20403;-78
2023/03/21 07:59:30;;;;;;;10.30;6.83;;;;;;;;;;5033704;28;20875;-77
2023/03/21 08:01:56;;;;;;;8.55;6.75;;;;;;;;;;5031116;28;20395;-77
2023/03/21 08:04:22;;;;;;;9.93;6.70;;;;;;;;;;5034089;28;20437;-77
2023/03/21 08:06:49;;;;;;;8.77;5.67;;;;;;;;;;5033935;28;20382;-76
2023/03/21 08:09:15;;;;;;;7.03;5.97;;;;;;;;;;5029621;28;20442;-77
2023/03/21 08:11:41;;;;;;;5.82;4.90;;;;;;;;;;5016396;28;20804;-77
2023/03/21 08:14:07;;;;;;;7.65;5.30;;;;;;;;;;5033989;28;20391;-77
2023/03/21 08:16:33;;;;;;;5.95;5.00;;;;;;;;;;5004257;28;20447;-77
2023/03/21 08:18:59;;;;;;;6.00;4.97;;;;;;;;;;5033457;28;20752;-77
2023/03/21 08:21:26;;;;;;;6.53;4.57;;;;;;;;;;5033881;28;20425;-77
2023/03/21 08:23:52;;;;;;;5.60;5.10;;;;;;;;;;5033655;28;20411;-77
2023/03/21 08:26:18;;;;;;;5.90;5.32;;;;;;;;;;5016109;28;20383;-77
2023/03/21 08:28:45;;;;;;;12.15;6.78;;;;;;;;;;5033622;28;20756;-77
2023/03/21 08:31:11;;;;;;;11.13;10.00;;;;;;;;;;5015925;28;20395;-78
2023/03/21 08:33:38;;;;;;;6.70;6.07;;;;;;;;;;5028451;28;20441;-78
2023/03/21 08:36:04;;;;;;;7.80;7.00;;;;;;;;;;5032322;28;20741;-77
2023/03/21 08:38:32;;;;;;;9.13;8.10;;;;;;;;;;5033530;28;20379;-77
2023/03/21 08:40:59;;;;;;;7.68;7.07;;;;;;;;;;5033317;28;20383;-78
2023/03/21 08:43:25;;;;;;;7.88;7.07;;;;;;;;;;5033278;28;20410;-78
2023/03/21 08:45:51;;;;;;;7.93;7.22;;;;;;;;;;5031201;28;20387;-78
2023/03/21 08:48:17;;;;;;;7.40;6.80;;;;;;;;;;5015616;28;20474;-78
2023/03/21 08:50:43;;;;;;;5.60;5.10;;;;;;;;;;5026442;28;20464;-78
2023/03/21 08:53:09;;;;;;;5.60;5.20;;;;;;;;;;5029515;28;20922;-78
2023/03/21 08:55:35;;;;;;;5.40;4.90;;;;;;;;;;5019023;28;20420;-78
2023/03/21 08:58:01;;;;;;;5.43;4.90;;;;;;;;;;5052274;28;20409;-78
2023/03/21 09:00:27;;;;;;;5.93;5.32;;;;;;;;;;5053249;28;20742;-77
2023/03/21 09:02:54;;;;;;;5.70;5.20;;;;;;;;;;5052884;28;20410;-77
2023/03/21 09:05:21;;;;;;;5.95;5.40;;;;;;;;;;5053766;28;20463;-79
2023/03/21 09:07:48;;;;;;;5.10;4.70;;;;;;;;;;5053806;28;20871;-77
2023/03/21 09:10:18;;;;;;;4.60;4.20;;;;;;;;;;5053906;28;20565;-77
2023/03/21 09:12:44;;;;;;;4.80;4.40;;;;;;;;;;5053977;28;20409;-77
2023/03/21 09:15:11;;;;;;;4.40;4.00;;;;;;;;;;5053545;28;20377;-77
2023/03/21 09:17:42;;;;;;;4.50;4.20;;;;;;;;;;5036305;28;20385;-76
2023/03/21 09:20:17;;;;;;;4.47;4.18;;;;;;;;;;5032805;28;20375;-77
2023/03/21 09:22:43;;;;;;;4.40;4.00;;;;;;;;;;5024599;28;20381;-77
2023/03/21 09:25:10;;;;;;;4.00;3.70;;;;;;;;;;5025710;28;20379;-77
2023/03/21 09:27:36;;;;;;;4.20;3.90;;;;;;;;;;5029589;28;20747;-78
2023/03/21 09:30:04;;;;;;;4.75;4.35;;;;;;;;;;5014777;28;20872;-77
2023/03/21 09:32:31;;;;;;;4.70;4.30;;;;;;;;;;5025474;28;20380;-77
2023/03/21 09:34:57;;;;;;;4.20;3.90;;;;;;;;;;5032853;28;20394;-77
2023/03/21 09:37:23;;;;;;;6.68;5.57;;;;;;;;;;5047289;28;20378;-77
2023/03/21 09:39:50;;;;;;;4.03;3.63;;;;;;;;;;5052520;28;20889;-77
2023/03/21 09:42:26;;;;;;;4.10;3.80;;;;;;;;;;5052355;28;20785;-77
2023/03/21 09:45:00;;;;;;;4.68;3.50;;;;;;;;;;5052336;28;20482;-77
2023/03/21 09:47:28;;;;;;;3.63;3.37;;;;;;;;;;5052020;28;20410;-77
2023/03/21 09:49:56;;;;;;;3.47;3.17;;;;;;;;;;5043021;28;20401;-77
2023/03/21 09:52:25;;;;;;;3.45;3.15;;;;;;;;;;5052156;28;20384;-77
2023/03/21 09:54:54;;;;;;;3.50;3.20;;;;;;;;;;5052249;28;20381;-77
2023/03/21 09:57:36;;;;;;;3.70;3.33;;;;;;;;;;5051895;28;20401;-77
2023/03/21 10:00:10;;;;;;;3.70;3.40;;;;;;;;;;5026533;28;20475;-77
2023/03/21 10:02:39;;;;;;;3.80;3.40;;;;;;;;;;5051855;28;20381;-77
2023/03/21 10:05:13;;;;;;;3.20;3.00;;;;;;;;;;5042465;28;20383;-77
2023/03/21 10:07:41;;;;;;;3.10;2.90;;;;;;;;;;5027655;28;20743;-78
2023/03/21 10:10:09;;;;;;;3.40;3.20;;;;;;;;;;5031890;28;21003;-77
2023/03/21 10:12:35;;;;;;;3.50;3.20;;;;;;;;;;5028308;28;20376;-78
2023/03/21 10:15:04;;;;;;;3.20;3.00;;;;;;;;;;5028063;28;20471;-77
2023/03/21 10:17:32;;;;;;;3.28;3.08;;;;;;;;;;5025934;28;20429;-77
2023/03/21 10:20:10;;;;;;;6.55;4.03;;;;;;;;;;5028723;28;20418;-78
2023/03/21 10:22:37;;;;;;;4.00;3.60;;;;;;;;;;5023436;28;20412;-77
2023/03/21 10:25:04;;;;;;;3.50;3.30;;;;;;;;;;5024135;28;20486;-78
2023/03/21 10:27:31;;;;;;;5.68;3.90;;;;;;;;;;5027927;28;20392;-78
2023/03/21 10:29:59;;;;;;;3.78;3.47;;;;;;;;;;5024532;28;20386;-78
2023/03/21 10:32:26;;;;;;;3.60;3.40;;;;;;;;;;5031363;28;20414;-78
2023/03/21 10:34:57;;;;;;;3.90;3.60;;;;;;;;;;5031631;28;20419;-78
2023/03/21 10:37:23;;;;;;;4.10;3.80;;;;;;;;;;5046059;28;20385;-78
2023/03/21 10:39:51;;;;;;;3.80;3.50;;;;;;;;;;5051402;28;20447;-78
2023/03/21 10:42:20;;;;;;;3.83;3.53;;;;;;;;;;5051245;28;20735;-78
2023/03/21 10:44:48;;;;;;;3.80;3.42;;;;;;;;;;5051309;28;20444;-78
2023/03/21 10:47:18;;;;;;;4.43;3.40;;;;;;;;;;5022417;28;20385;-78
2023/03/21 10:49:46;;;;;;;3.55;3.30;;;;;;;;;;5012735;28;20405;-79
2023/03/21 10:52:13;;;;;;;3.13;2.92;;;;;;;;;;5022696;28;20859;-78
2023/03/21 10:54:39;;;;;;;3.22;2.92;;;;;;;;;;5045153;28;20472;-78
2023/03/21 10:57:07;;;;;;;3.42;3.22;;;;;;;;;;5033607;28;20890;-78
2023/03/21 10:59:39;;;;;;;3.08;2.80;;;;;;;;;;5043350;28;20435;-78
2023/03/21 11:02:06;;;;;;;2.90;2.60;;;;;;;;;;5050512;28;20382;-78
2023/03/21 11:04:32;;;;;;;3.15;2.95;;;;;;;;;;5038078;28;20514;-78
2023/03/21 11:07:00;;;;;;;3.10;2.90;;;;;;;;;;5050760;28;20378;-79
2023/03/21 11:09:42;;;;;;;3.28;2.97;;;;;;;;;;5043541;28;20454;-79
2023/03/21 11:12:12;;;;;;;3.47;3.17;;;;;;;;;;5029711;28;20434;-78
2023/03/21 11:14:45;;;;;;;3.40;3.20;;;;;;;;;;5045285;28;20379;-78
2023/03/21 11:17:18;;;;;;;3.47;3.17;;;;;;;;;;5047498;28;20396;-78
2023/03/21 11:19:52;;;;;;;3.15;2.95;;;;;;;;;;5049786;28;20385;-79
2023/03/21 11:22:20;;;;;;;3.55;3.25;;;;;;;;;;5047544;28;20416;-79
2023/03/21 11:24:50;;;;;;;4.87;3.23;;;;;;;;;;5021731;28;20463;-79
2023/03/21 11:27:16;;;;;;;3.42;3.15;;;;;;;;;;5047594;28;21114;-79
2023/03/21 11:29:47;;;;;;;4.17;3.87;;;;;;;;;;5045284;28;20437;-79
2023/03/21 11:32:20;;;;;;;3.72;3.42;;;;;;;;;;5050829;28;20369;-78
2023/03/21 11:34:47;;;;;;;3.35;3.15;;;;;;;;;;5051053;28;20858;-78
2023/03/21 11:37:17;;;;;;;3.40;3.20;;;;;;;;;;5048817;28;20419;-78
2023/03/21 11:39:44;;;;;;;3.42;3.20;;;;;;;;;;5050941;28;20389;-78
2023/03/21 11:42:27;;;;;;;3.60;3.40;;;;;;;;;;5050969;28;20377;-78
2023/03/21 11:45:02;;;;;;;3.97;3.60;;;;;;;;;;5050874;28;20458;-78
2023/03/21 11:47:28;;;;;;;4.18;3.88;;;;;;;;;;5050625;28;20381;-78
2023/03/21 11:49:55;;;;;;;3.42;3.13;;;;;;;;;;5050835;28;20456;-78
2023/03/21 11:52:24;;;;;;;3.42;3.13;;;;;;;;;;5014105;28;20387;-78
2023/03/21 11:55:02;;;;;;;3.78;3.47;;;;;;;;;;5049456;28;20385;-78
2023/03/21 11:57:28;;;;;;;3.40;3.10;;;;;;;;;;5050389;28;20428;-79
2023/03/21 11:59:57;;;;;;;3.67;3.00;;;;;;;;;;5050783;28;20385;-79
2023/03/21 12:02:23;;;;;;;3.40;3.20;;;;;;;;;;5038226;28;20390;-79
2023/03/21 12:05:12;;;;;;;3.40;3.20;;;;;;;;;;5041972;28;20764;-79
2023/03/21 12:07:43;;;;;;;3.55;3.25;;;;;;;;;;5041340;28;20381;-78
2023/03/21 12:10:28;;;;;;;3.20;2.90;;;;;;;;;;5022079;28;20523;-79
2023/03/21 12:12:54;;;;;;;3.70;3.40;;;;;;;;;;5053869;28;20404;-78
2023/03/21 12:15:38;;;;;;;3.50;3.20;;;;;;;;;;5054070;28;20397;-78
2023/03/21 12:18:21;;;;;;;3.80;3.37;;;;;;;;;;5054016;28;20954;-79
2023/03/21 12:20:50;;;;;;;5.18;3.80;;;;;;;;;;5027686;28;20462;-79
2023/03/21 12:23:16;;;;;;;3.90;3.60;;;;;;;;;;5053703;28;20398;-79
2023/03/21 12:25:47;;;;;;;3.80;3.50;;;;;;;;;;5053796;28;20396;-79
2023/03/21 12:28:13;;;;;;;4.00;3.70;;;;;;;;;;5053666;28;20503;-79
2023/03/21 12:30:40;;;;;;;4.10;3.80;;;;;;;;;;5053883;28;20456;-78
2023/03/21 12:33:06;;;;;;;4.10;3.80;;;;;;;;;;5044246;28;20864;-79
2023/03/21 12:35:32;;;;;;;4.05;3.75;;;;;;;;;;5033597;28;20466;-78
2023/03/21 12:38:17;;;;;;;4.60;4.23;;;;;;;;;;5056758;28;20432;-78
2023/03/21 12:40:51;;;;;;;6.23;5.63;;;;;;;;;;5058054;28;20443;-78
2023/03/21 12:43:31;;;;;;;5.80;5.20;;;;;;;;;;5056469;28;20405;-79
2023/03/21 12:45:59;;;;;;;7.88;6.40;;;;;;;;;;5054942;28;20380;-79
2023/03/21 12:48:52;;;;;;;4.97;4.57;;;;;;;;;;5055035;28;20370;-79
2023/03/21 12:51:19;;;;;;;4.38;3.97;;;;;;;;;;5049017;28;20416;-79
2023/03/21 12:54:18;;;;;;;4.32;3.92;;;;;;;;;;5040122;28;20897;-79
2023/03/21 12:56:44;;;;;;;4.82;4.32;;;;;;;;;;4978617;28;20412;-78
2023/03/21 12:59:26;;;;;;;4.20;3.80;;;;;;;;;;5033599;28;20379;-79
2023/03/21 13:01:54;;;;;;;4.25;3.95;;;;;;;;;;5021751;28;20387;-79
2023/03/21 13:04:40;;;;;;;4.53;4.05;;;;;;;;;;5033327;28;20419;-79
2023/03/21 13:07:09;;;;;;;4.40;3.80;;;;;;;;;;5033323;28;20386;-79
2023/03/21 13:09:36;;;;;;;3.95;3.60;;;;;;;;;;5033118;28;20410;-79
2023/03/21 13:12:21;;;;;;;4.00;3.65;;;;;;;;;;5033247;28;20805;-79
2023/03/21 13:15:03;;;;;;;4.03;3.63;;;;;;;;;;5032938;28;20414;-78
2023/03/21 13:17:52;;;;;;;4.23;3.83;;;;;;;;;;5029905;28;20915;-79
2023/03/21 13:20:21;;;;;;;3.78;3.47;;;;;;;;;;5013847;28;20434;-79
2023/03/21 13:22:47;;;;;;;4.20;3.90;;;;;;;;;;5032198;28;20474;-79
2023/03/21 13:25:18;;;;;;;3.58;3.35;;;;;;;;;;5022484;28;20938;-79
2023/03/21 13:27:50;;;;;;;4.47;3.40;;;;;;;;;;5030470;28;20375;-78
2023/03/21 13:30:21;;;;;;;4.17;3.40;;;;;;;;;;5032805;28;20477;-79
2023/03/21 13:32:49;;;;;;;3.40;3.10;;;;;;;;;;5032392;28;20485;-78
2023/03/21 13:35:19;;;;;;;4.07;3.63;;;;;;;;;;5032364;28;20513;-79
2023/03/21 13:37:50;;;;;;;3.92;3.55;;;;;;;;;;5030207;28;20411;-79
2023/03/21 13:40:25;;;;;;;3.75;3.45;;;;;;;;;;5030448;28;20388;-78
2023/03/21 13:42:53;;;;;;;4.00;3.60;;;;;;;;;;5014509;28;20383;-79
2023/03/21 13:45:24;;;;;;;3.70;3.40;;;;;;;;;;5030988;28;20375;-79
2023/03/21 13:47:57;;;;;;;4.27;3.80;;;;;;;;;;5001690;28;20962;-79
2023/03/21 13:50:25;;;;;;;4.15;3.60;;;;;;;;;;5032447;28;20736;-79
2023/03/21 13:53:12;;;;;;;4.00;3.60;;;;;;;;;;5027404;28;20387;-79
2023/03/21 13:55:43;;;;;;;4.20;3.53;;;;;;;;;;5007238;28;20386;-79
2023/03/21 13:58:28;;;;;;;4.10;3.80;;;;;;;;;;5046549;28;20397;-78
2023/03/21 14:01:12;;;;;;;3.70;3.40;;;;;;;;;;5061765;28;20460;-78
2023/03/21 14:03:39;;;;;;;3.90;3.60;;;;;;;;;;5070232;28;20502;-79
2023/03/21 14:06:06;;;;;;;4.97;3.42;;;;;;;;;;5071801;28;20379;-79
2023/03/21 14:08:35;;;;;;;3.20;3.00;;;;;;;;;;5053740;28;21284;-78
2023/03/21 14:11:03;;;;;;;3.40;3.10;;;;;;;;;;5069453;28;20372;-78
2023/03/21 14:13:29;;;;;;;3.63;3.33;;;;;;;;;;5050289;28;20389;-78
2023/03/21 14:16:06;;;;;;;3.30;2.67;;;;;;;;;;5071589;28;20395;-78
2023/03/21 14:18:40;;;;;;;3.55;3.20;;;;;;;;;;5071559;28;20379;-79
2023/03/21 14:21:06;;;;;;;4.45;3.08;;;;;;;;;;5071684;28;20379;-78
2023/03/21 14:23:32;;;;;;;4.80;2.90;;;;;;;;;;5071611;28;21002;-79
2023/03/21 14:25:58;;;;;;;3.85;2.83;;;;;;;;;;5071570;28;20376;-79
2023/03/21 14:28:26;;;;;;;3.20;2.97;;;;;;;;;;5071564;28;20375;-79
2023/03/21 14:30:58;;;;;;;3.60;2.83;;;;;;;;;;5071389;28;20383;-79
2023/03/21 14:33:43;;;;;;;4.37;2.70;;;;;;;;;;5061967;28;20478;-79
2023/03/21 14:36:14;;;;;;;3.97;3.03;;;;;;;;;;5070916;28;20401;-79
2023/03/21 14:38:40;;;;;;;3.55;2.35;;;;;;;;;;5071415;28;20383;-79
2023/03/21 14:41:18;;;;;;;2.72;2.53;;;;;;;;;;5052534;28;20413;-78
2023/03/21 14:43:44;;;;;;;5.88;2.88;;;;;;;;;;5033405;28;20409;-78
2023/03/21 14:46:12;;;;;;;3.80;2.75;;;;;;;;;;5054678;28;20370;-79
2023/03/21 14:48:38;;;;;;;3.57;2.60;;;;;;;;;;5049812;28;20427;-79
2023/03/21 14:51:05;;;;;;;3.40;2.40;;;;;;;;;;5050869;28;20385;-78
2023/03/21 14:53:41;;;;;;;3.40;2.67;;;;;;;;;;5058963;28;20384;-79
2023/03/21 14:56:09;;;;;;;3.10;2.30;;;;;;;;;;5070731;28;20399;-79